UAE333 ESSA-LEPA
Flight info
| Callsign | UAE333 |
|---|---|
| Flight time | 3h 8m |
| Altitude | 38000 |
| Route | NOSLI N850 ABAMA DCT MAKEL DCT TOLGI/N0489F400 DCT BOMBI DCT GIGET DCT ABUKA DCT KRH DCT NATOR/N0492F390 DCT LUTIX DCT BENOT DCT NEMOS DCT GEVEA DCT INCUS DCT BALSI DCT RETNO DCT TUPOX DCT MTG DCT DIVKO DCT VATIR N852 VERSO L129 LUNIK |
| Aircraft | A35K/H-SDE2E3GHIJ3J4J5LM1ORWXY/LB1D1 |
Departure
| Time | 2026-05-07 02:00 |
|---|---|
| Airport | Stockholm-Arlanda Airport (ESSA) |
Arrival
| Time | 2026-05-07 05:09 |
|---|---|
| Airport | Palma de Mallorca Airport (LEPA) |
| Time | Latitude | Longitude | Altitude | Speed | Heading |
|---|---|---|---|---|---|
| 2026-05-07 01:30 | 59.65390 | 17.93158 | 148 ft | 0 kts | 224° |
| 2026-05-07 01:48 | 59.65402 | 17.93180 | 143 ft | 2 kts | 223° |
| 2026-05-07 01:48 | 59.65414 | 17.93203 | 143 ft | 2 kts | 222° |
| 2026-05-07 01:49 | 59.65426 | 17.93224 | 143 ft | 2 kts | 222° |
| 2026-05-07 01:49 | 59.65438 | 17.93247 | 143 ft | 2 kts | 252° |
| 2026-05-07 01:49 | 59.65435 | 17.93277 | 143 ft | 2 kts | 318° |
| 2026-05-07 01:49 | 59.65425 | 17.93291 | 143 ft | 1 kts | 339° |
| 2026-05-07 01:50 | 59.65423 | 17.93293 | 143 ft | 0 kts | 341° |
| 2026-05-07 01:54 | 59.65425 | 17.93292 | 143 ft | 2 kts | 341° |
| 2026-05-07 01:54 | 59.65448 | 17.93271 | 143 ft | 5 kts | 330° |
| 2026-05-07 01:55 | 59.65486 | 17.93207 | 143 ft | 9 kts | 318° |
| 2026-05-07 01:55 | 59.65551 | 17.93151 | 144 ft | 12 kts | 341° |
| 2026-05-07 01:55 | 59.65580 | 17.93012 | 144 ft | 13 kts | 261° |
| 2026-05-07 01:55 | 59.65554 | 17.92822 | 144 ft | 16 kts | 255° |
| 2026-05-07 01:56 | 59.65530 | 17.92634 | 144 ft | 12 kts | 258° |
| 2026-05-07 01:56 | 59.65577 | 17.92510 | 144 ft | 13 kts | 342° |
| 2026-05-07 01:56 | 59.65676 | 17.92456 | 144 ft | 16 kts | 345° |
| 2026-05-07 01:56 | 59.65795 | 17.92430 | 144 ft | 15 kts | 9° |
| 2026-05-07 01:57 | 59.65880 | 17.92461 | 144 ft | 14 kts | 10° |
| 2026-05-07 01:57 | 59.65983 | 17.92499 | 144 ft | 17 kts | 10° |
| 2026-05-07 01:57 | 59.66107 | 17.92544 | 144 ft | 19 kts | 10° |
| 2026-05-07 01:57 | 59.66249 | 17.92595 | 144 ft | 22 kts | 10° |
| 2026-05-07 01:58 | 59.66407 | 17.92652 | 144 ft | 23 kts | 8° |
| 2026-05-07 01:58 | 59.66491 | 17.92634 | 144 ft | 10 kts | 345° |
| 2026-05-07 01:58 | 59.66567 | 17.92585 | 144 ft | 13 kts | 340° |
| 2026-05-07 01:58 | 59.66619 | 17.92465 | 147 ft | 12 kts | 276° |
| 2026-05-07 01:59 | 59.66573 | 17.92359 | 147 ft | 10 kts | 197° |
| 2026-05-07 01:59 | 59.66544 | 17.92348 | 147 ft | 0 kts | 190° |
| 2026-05-07 01:59 | 59.66329 | 17.92269 | 149 ft | 71 kts | 190° |
| 2026-05-07 02:00 | 59.65601 | 17.92009 | 150 ft | 139 kts | 191° |
| 2026-05-07 02:00 | 59.64509 | 17.91616 | 520 ft | 164 kts | 190° |
| 2026-05-07 02:00 | 59.63405 | 17.91186 | 1390 ft | 163 kts | 191° |
| 2026-05-07 02:00 | 59.62210 | 17.90744 | 1805 ft | 190 kts | 190° |
| 2026-05-07 02:01 | 59.60934 | 17.89625 | 2231 ft | 213 kts | 224° |
| 2026-05-07 02:01 | 59.60122 | 17.87138 | 3073 ft | 218 kts | 241° |
| 2026-05-07 02:01 | 59.59391 | 17.84496 | 3978 ft | 220 kts | 238° |
| 2026-05-07 02:01 | 59.58609 | 17.81854 | 4793 ft | 226 kts | 242° |
| 2026-05-07 02:02 | 59.57898 | 17.78994 | 5317 ft | 247 kts | 244° |
| 2026-05-07 02:02 | 59.57104 | 17.75887 | 5931 ft | 261 kts | 239° |
| 2026-05-07 02:02 | 59.55866 | 17.73232 | 6816 ft | 266 kts | 215° |
| 2026-05-07 02:02 | 59.54254 | 17.71413 | 7774 ft | 269 kts | 208° |
| 2026-05-07 02:03 | 59.52562 | 17.69759 | 8744 ft | 274 kts | 208° |
| 2026-05-07 02:03 | 59.50840 | 17.68094 | 9784 ft | 276 kts | 209° |
| 2026-05-07 02:03 | 59.49097 | 17.66394 | 10584 ft | 287 kts | 210° |
| 2026-05-07 02:03 | 59.47241 | 17.64570 | 11000 ft | 310 kts | 209° |
| 2026-05-07 02:04 | 59.45235 | 17.62597 | 11381 ft | 333 kts | 209° |
| 2026-05-07 02:04 | 59.43110 | 17.60514 | 11967 ft | 347 kts | 209° |
| 2026-05-07 02:04 | 59.40926 | 17.58380 | 12847 ft | 352 kts | 209° |
| 2026-05-07 02:04 | 59.38723 | 17.56230 | 13853 ft | 354 kts | 209° |
| 2026-05-07 02:05 | 59.36533 | 17.54094 | 14663 ft | 358 kts | 209° |
| 2026-05-07 02:05 | 59.34287 | 17.51903 | 15459 ft | 363 kts | 209° |
| 2026-05-07 02:05 | 59.32010 | 17.49686 | 16297 ft | 368 kts | 210° |
| 2026-05-07 02:05 | 59.29703 | 17.47443 | 17180 ft | 372 kts | 210° |
| 2026-05-07 02:06 | 59.27364 | 17.45171 | 18037 ft | 377 kts | 210° |
| 2026-05-07 02:06 | 59.25007 | 17.42885 | 18863 ft | 380 kts | 210° |
| 2026-05-07 02:06 | 59.22628 | 17.40583 | 19697 ft | 382 kts | 210° |
| 2026-05-07 02:06 | 59.20234 | 17.38269 | 20543 ft | 384 kts | 210° |
| 2026-05-07 02:07 | 59.17831 | 17.35951 | 21391 ft | 386 kts | 210° |
| 2026-05-07 02:07 | 59.13004 | 17.31302 | 23031 ft | 391 kts | 210° |
| 2026-05-07 02:07 | 59.10556 | 17.28951 | 23795 ft | 394 kts | 210° |
| 2026-05-07 02:08 | 59.08114 | 17.26491 | 24461 ft | 395 kts | 213° |
| 2026-05-07 02:08 | 59.05835 | 17.23519 | 25137 ft | 394 kts | 220° |
| 2026-05-07 02:08 | 59.03699 | 17.20278 | 25810 ft | 396 kts | 221° |
| 2026-05-07 02:08 | 59.01570 | 17.16854 | 26378 ft | 400 kts | 223° |
| 2026-05-07 02:09 | 58.99436 | 17.13344 | 26971 ft | 404 kts | 223° |
| 2026-05-07 02:09 | 58.97281 | 17.09791 | 27647 ft | 406 kts | 223° |
| 2026-05-07 02:09 | 58.95124 | 17.06259 | 28332 ft | 408 kts | 222° |
| 2026-05-07 02:09 | 58.92943 | 17.02722 | 28982 ft | 410 kts | 222° |
| 2026-05-07 02:10 | 58.90741 | 16.99177 | 29587 ft | 412 kts | 222° |
| 2026-05-07 02:10 | 58.88525 | 16.95629 | 30161 ft | 415 kts | 222° |
| 2026-05-07 02:10 | 58.86293 | 16.92069 | 30589 ft | 419 kts | 221° |
| 2026-05-07 02:10 | 58.84025 | 16.88459 | 30960 ft | 423 kts | 221° |
| 2026-05-07 02:11 | 58.81737 | 16.84825 | 31325 ft | 427 kts | 221° |
| 2026-05-07 02:11 | 58.79434 | 16.81173 | 31781 ft | 428 kts | 221° |
| 2026-05-07 02:11 | 58.77126 | 16.77519 | 32224 ft | 430 kts | 221° |
| 2026-05-07 02:11 | 58.74840 | 16.73905 | 32668 ft | 431 kts | 221° |
| 2026-05-07 02:12 | 58.72517 | 16.70241 | 33207 ft | 430 kts | 221° |
| 2026-05-07 02:12 | 58.70199 | 16.66590 | 33712 ft | 430 kts | 221° |
| 2026-05-07 02:12 | 58.67888 | 16.62957 | 34170 ft | 429 kts | 221° |
| 2026-05-07 02:12 | 58.65572 | 16.59321 | 34531 ft | 430 kts | 221° |
| 2026-05-07 02:13 | 58.63248 | 16.55678 | 34854 ft | 431 kts | 221° |
| 2026-05-07 02:13 | 58.60911 | 16.52020 | 35163 ft | 433 kts | 221° |
| 2026-05-07 02:13 | 58.58598 | 16.48399 | 35493 ft | 434 kts | 221° |
| 2026-05-07 02:13 | 58.56256 | 16.44746 | 35837 ft | 434 kts | 221° |
| 2026-05-07 02:14 | 58.53901 | 16.41083 | 36085 ft | 436 kts | 221° |
| 2026-05-07 02:14 | 58.51538 | 16.37416 | 36296 ft | 439 kts | 221° |
| 2026-05-07 02:14 | 58.49155 | 16.33723 | 36585 ft | 440 kts | 221° |
| 2026-05-07 02:14 | 58.46770 | 16.30033 | 36887 ft | 441 kts | 221° |
| 2026-05-07 02:15 | 58.44385 | 16.26350 | 37173 ft | 442 kts | 221° |
| 2026-05-07 02:15 | 58.41989 | 16.22656 | 37454 ft | 443 kts | 221° |
| 2026-05-07 02:15 | 58.39589 | 16.18963 | 37728 ft | 444 kts | 220° |
| 2026-05-07 02:15 | 58.37183 | 16.15266 | 37952 ft | 445 kts | 220° |
| 2026-05-07 02:16 | 58.32363 | 16.07880 | 38018 ft | 448 kts | 220° |
| 2026-05-07 02:16 | 58.27501 | 16.00456 | 38011 ft | 449 kts | 220° |
| 2026-05-07 02:17 | 58.22623 | 15.93035 | 38015 ft | 449 kts | 220° |
| 2026-05-07 02:17 | 58.17767 | 15.85674 | 38015 ft | 449 kts | 220° |
| 2026-05-07 02:18 | 58.12885 | 15.78299 | 38018 ft | 449 kts | 220° |
| 2026-05-07 02:18 | 58.07996 | 15.70941 | 38018 ft | 449 kts | 220° |
| 2026-05-07 02:19 | 58.03101 | 15.63601 | 38016 ft | 450 kts | 220° |
| 2026-05-07 02:19 | 57.98123 | 15.56443 | 38018 ft | 451 kts | 215° |
| 2026-05-07 02:20 | 57.92850 | 15.50015 | 38016 ft | 452 kts | 214° |
| 2026-05-07 02:20 | 57.87523 | 15.43731 | 38016 ft | 452 kts | 214° |
| 2026-05-07 02:21 | 57.82221 | 15.37515 | 38018 ft | 452 kts | 214° |
| 2026-05-07 02:21 | 57.76912 | 15.31293 | 38022 ft | 452 kts | 214° |
| 2026-05-07 02:22 | 57.71585 | 15.25060 | 38017 ft | 452 kts | 214° |
| 2026-05-07 02:22 | 57.66247 | 15.18834 | 38018 ft | 452 kts | 214° |
| 2026-05-07 02:23 | 57.60924 | 15.12649 | 38017 ft | 452 kts | 214° |
| 2026-05-07 02:23 | 57.55572 | 15.06452 | 38013 ft | 452 kts | 214° |
| 2026-05-07 02:24 | 57.50217 | 15.00274 | 38021 ft | 453 kts | 214° |
| 2026-05-07 02:24 | 57.44884 | 14.94143 | 38020 ft | 453 kts | 214° |
| 2026-05-07 02:25 | 57.39518 | 14.87995 | 38021 ft | 453 kts | 214° |
| 2026-05-07 02:25 | 57.34147 | 14.81863 | 38025 ft | 453 kts | 214° |
| 2026-05-07 02:26 | 57.28776 | 14.75751 | 38035 ft | 454 kts | 214° |
| 2026-05-07 02:26 | 57.23385 | 14.69638 | 38011 ft | 454 kts | 214° |
| 2026-05-07 02:27 | 57.18028 | 14.63585 | 38009 ft | 454 kts | 213° |
| 2026-05-07 02:27 | 57.12628 | 14.57505 | 38008 ft | 454 kts | 213° |
| 2026-05-07 02:28 | 57.07232 | 14.51449 | 38017 ft | 454 kts | 213° |
| 2026-05-07 02:28 | 57.01816 | 14.45392 | 38020 ft | 455 kts | 213° |
| 2026-05-07 02:29 | 56.96403 | 14.39360 | 38023 ft | 455 kts | 213° |
| 2026-05-07 02:29 | 56.91899 | 14.34356 | 38003 ft | 455 kts | 213° |
| 2026-05-07 02:30 | 56.85583 | 14.27365 | 38014 ft | 455 kts | 213° |
| 2026-05-07 02:30 | 56.81041 | 14.22353 | 38009 ft | 456 kts | 213° |
| 2026-05-07 02:31 | 56.75642 | 14.16414 | 38020 ft | 456 kts | 213° |
| 2026-05-07 02:31 | 56.70184 | 14.10433 | 38019 ft | 457 kts | 213° |
| 2026-05-07 02:32 | 56.64732 | 14.04478 | 38017 ft | 456 kts | 213° |
| 2026-05-07 02:32 | 56.59292 | 13.98556 | 38006 ft | 456 kts | 213° |
| 2026-05-07 02:33 | 56.53852 | 13.92652 | 38019 ft | 457 kts | 213° |
| 2026-05-07 02:33 | 56.48391 | 13.86746 | 38018 ft | 457 kts | 213° |
| 2026-05-07 02:34 | 56.42927 | 13.80858 | 38021 ft | 457 kts | 213° |
| 2026-05-07 02:34 | 56.37458 | 13.74985 | 38021 ft | 457 kts | 213° |
| 2026-05-07 02:35 | 56.32020 | 13.69164 | 38016 ft | 458 kts | 213° |
| 2026-05-07 02:35 | 56.26521 | 13.63297 | 38021 ft | 458 kts | 212° |
| 2026-05-07 02:36 | 56.21037 | 13.57466 | 38021 ft | 458 kts | 212° |
| 2026-05-07 02:36 | 56.15551 | 13.51653 | 38020 ft | 458 kts | 212° |
| 2026-05-07 02:37 | 56.10086 | 13.45881 | 38004 ft | 458 kts | 212° |
| 2026-05-07 02:37 | 56.04588 | 13.40094 | 38021 ft | 458 kts | 212° |
| 2026-05-07 02:38 | 55.99076 | 13.34312 | 38020 ft | 459 kts | 212° |
| 2026-05-07 02:38 | 55.93563 | 13.28548 | 38020 ft | 459 kts | 212° |
| 2026-05-07 02:39 | 55.88078 | 13.22832 | 38018 ft | 459 kts | 212° |
| 2026-05-07 02:39 | 55.82556 | 13.17097 | 38022 ft | 459 kts | 212° |
| 2026-05-07 02:40 | 55.77030 | 13.11376 | 38012 ft | 459 kts | 212° |
| 2026-05-07 02:40 | 55.71516 | 13.05687 | 38017 ft | 459 kts | 212° |
| 2026-05-07 02:41 | 55.65991 | 13.00005 | 38017 ft | 459 kts | 212° |
| 2026-05-07 02:41 | 55.60505 | 12.94382 | 38015 ft | 459 kts | 212° |
| 2026-05-07 02:42 | 55.54969 | 12.88723 | 38020 ft | 460 kts | 212° |
| 2026-05-07 02:42 | 55.49405 | 12.83059 | 38012 ft | 460 kts | 212° |
| 2026-05-07 02:43 | 55.43855 | 12.77427 | 38012 ft | 460 kts | 212° |
| 2026-05-07 02:43 | 55.38329 | 12.71838 | 38012 ft | 460 kts | 212° |
| 2026-05-07 02:44 | 55.32764 | 12.66226 | 38009 ft | 460 kts | 212° |
| 2026-05-07 02:44 | 55.27212 | 12.60646 | 38011 ft | 460 kts | 211° |
| 2026-05-07 02:45 | 55.21672 | 12.55096 | 38009 ft | 460 kts | 211° |
| 2026-05-07 02:45 | 55.16113 | 12.49545 | 38009 ft | 460 kts | 211° |
| 2026-05-07 02:46 | 55.10543 | 12.44000 | 38009 ft | 460 kts | 211° |
| 2026-05-07 02:46 | 55.04964 | 12.38466 | 38007 ft | 461 kts | 211° |
| 2026-05-07 02:47 | 54.99385 | 12.32950 | 38005 ft | 461 kts | 211° |
| 2026-05-07 02:47 | 54.93807 | 12.27451 | 38003 ft | 461 kts | 211° |
| 2026-05-07 02:48 | 54.88265 | 12.22005 | 37999 ft | 461 kts | 211° |
| 2026-05-07 02:48 | 54.82663 | 12.16519 | 38001 ft | 461 kts | 211° |
| 2026-05-07 02:49 | 54.77072 | 12.11061 | 38002 ft | 461 kts | 211° |
| 2026-05-07 02:49 | 54.71473 | 12.05612 | 37998 ft | 461 kts | 211° |
| 2026-05-07 02:50 | 54.65911 | 12.00217 | 37973 ft | 461 kts | 211° |
| 2026-05-07 02:50 | 54.60275 | 11.94767 | 37995 ft | 461 kts | 211° |
| 2026-05-07 02:51 | 54.54701 | 11.89395 | 37991 ft | 461 kts | 211° |
| 2026-05-07 02:51 | 54.49090 | 11.84003 | 37995 ft | 462 kts | 211° |
| 2026-05-07 02:52 | 54.43462 | 11.78616 | 37991 ft | 463 kts | 210° |
| 2026-05-07 02:52 | 54.37800 | 11.73351 | 37988 ft | 463 kts | 210° |
| 2026-05-07 02:53 | 54.32142 | 11.68170 | 37990 ft | 463 kts | 210° |
| 2026-05-07 02:53 | 54.26452 | 11.62960 | 37983 ft | 463 kts | 210° |
| 2026-05-07 02:54 | 54.20760 | 11.57745 | 37982 ft | 463 kts | 210° |
| 2026-05-07 02:54 | 54.15081 | 11.52552 | 37978 ft | 463 kts | 210° |
| 2026-05-07 02:55 | 54.09394 | 11.47370 | 37976 ft | 463 kts | 209° |
| 2026-05-07 02:55 | 54.03704 | 11.42201 | 37977 ft | 463 kts | 209° |
| 2026-05-07 02:56 | 53.98008 | 11.37044 | 37975 ft | 463 kts | 209° |
| 2026-05-07 02:56 | 53.92338 | 11.31925 | 37980 ft | 464 kts | 209° |
| 2026-05-07 02:57 | 53.86630 | 11.26789 | 37975 ft | 464 kts | 209° |
| 2026-05-07 02:57 | 53.80925 | 11.21671 | 37977 ft | 464 kts | 209° |
| 2026-05-07 02:58 | 53.75212 | 11.16562 | 37980 ft | 464 kts | 209° |
| 2026-05-07 02:58 | 53.69501 | 11.11471 | 37973 ft | 464 kts | 209° |
| 2026-05-07 02:59 | 53.63783 | 11.06389 | 37973 ft | 464 kts | 209° |
| 2026-05-07 02:59 | 53.58062 | 11.01320 | 37965 ft | 464 kts | 209° |
| 2026-05-07 03:00 | 53.52367 | 10.96290 | 37956 ft | 464 kts | 209° |
| 2026-05-07 03:00 | 53.46644 | 10.91249 | 37950 ft | 464 kts | 208° |
| 2026-05-07 03:01 | 53.40915 | 10.86220 | 37954 ft | 465 kts | 208° |
| 2026-05-07 03:01 | 53.35166 | 10.81188 | 37934 ft | 467 kts | 208° |
| 2026-05-07 03:02 | 53.29407 | 10.76163 | 37938 ft | 467 kts | 208° |
| 2026-05-07 03:02 | 53.23657 | 10.71161 | 37926 ft | 467 kts | 208° |
| 2026-05-07 03:03 | 53.17885 | 10.66157 | 37934 ft | 467 kts | 208° |
| 2026-05-07 03:03 | 53.12102 | 10.61157 | 37932 ft | 467 kts | 208° |
| 2026-05-07 03:04 | 53.06323 | 10.56175 | 37926 ft | 467 kts | 208° |
| 2026-05-07 03:04 | 53.00545 | 10.51210 | 37927 ft | 467 kts | 208° |
| 2026-05-07 03:05 | 52.94757 | 10.46252 | 37920 ft | 468 kts | 208° |
| 2026-05-07 03:05 | 52.88997 | 10.41331 | 37914 ft | 468 kts | 208° |
| 2026-05-07 03:06 | 52.83211 | 10.36405 | 37918 ft | 468 kts | 208° |
| 2026-05-07 03:06 | 52.77423 | 10.31490 | 37914 ft | 467 kts | 208° |
| 2026-05-07 03:07 | 52.71656 | 10.26609 | 37914 ft | 468 kts | 208° |
| 2026-05-07 03:07 | 52.65858 | 10.21716 | 37913 ft | 468 kts | 208° |
| 2026-05-07 03:08 | 52.60052 | 10.16830 | 37910 ft | 468 kts | 208° |
| 2026-05-07 03:08 | 52.54246 | 10.11960 | 37908 ft | 468 kts | 208° |
| 2026-05-07 03:09 | 52.48466 | 10.07126 | 37911 ft | 469 kts | 208° |
| 2026-05-07 03:09 | 52.42656 | 10.02281 | 37910 ft | 469 kts | 208° |
| 2026-05-07 03:10 | 52.36832 | 9.97439 | 37925 ft | 469 kts | 208° |
| 2026-05-07 03:10 | 52.31005 | 9.92608 | 37929 ft | 469 kts | 208° |
| 2026-05-07 03:11 | 52.25171 | 9.87787 | 37919 ft | 471 kts | 208° |
| 2026-05-07 03:11 | 52.19358 | 9.82997 | 37913 ft | 471 kts | 207° |
| 2026-05-07 03:12 | 52.13489 | 9.78176 | 37904 ft | 471 kts | 207° |
| 2026-05-07 03:12 | 52.07634 | 9.73379 | 37900 ft | 471 kts | 207° |
| 2026-05-07 03:13 | 52.01771 | 9.68591 | 37892 ft | 472 kts | 207° |
| 2026-05-07 03:13 | 51.95900 | 9.63810 | 37893 ft | 472 kts | 207° |
| 2026-05-07 03:14 | 51.90035 | 9.59048 | 37890 ft | 472 kts | 207° |
| 2026-05-07 03:14 | 51.84134 | 9.54366 | 38038 ft | 473 kts | 204° |
| 2026-05-07 03:15 | 51.81032 | 9.52586 | 38407 ft | 472 kts | 198° |
| 2026-05-07 03:15 | 51.77887 | 9.51100 | 38727 ft | 471 kts | 197° |
| 2026-05-07 03:15 | 51.74770 | 9.49721 | 38954 ft | 471 kts | 196° |
| 2026-05-07 03:15 | 51.71598 | 9.48367 | 39170 ft | 471 kts | 196° |
| 2026-05-07 03:16 | 51.68422 | 9.47031 | 39394 ft | 472 kts | 196° |
| 2026-05-07 03:16 | 51.65245 | 9.45697 | 39582 ft | 472 kts | 196° |
| 2026-05-07 03:16 | 51.62070 | 9.44361 | 39805 ft | 472 kts | 196° |
| 2026-05-07 03:17 | 51.55698 | 9.41666 | 39879 ft | 473 kts | 196° |
| 2026-05-07 03:17 | 51.50398 | 9.39419 | 39884 ft | 473 kts | 196° |
| 2026-05-07 03:18 | 51.42989 | 9.36283 | 39871 ft | 473 kts | 196° |
| 2026-05-07 03:18 | 51.36612 | 9.33592 | 39878 ft | 473 kts | 196° |
| 2026-05-07 03:19 | 51.31298 | 9.31357 | 39884 ft | 473 kts | 196° |
| 2026-05-07 03:19 | 51.24904 | 9.28675 | 39883 ft | 474 kts | 196° |
| 2026-05-07 03:20 | 51.18568 | 9.26026 | 39881 ft | 474 kts | 195° |
| 2026-05-07 03:20 | 51.12188 | 9.23365 | 39883 ft | 474 kts | 195° |
| 2026-05-07 03:21 | 51.05801 | 9.20709 | 39884 ft | 474 kts | 195° |
| 2026-05-07 03:21 | 50.99416 | 9.18061 | 39884 ft | 474 kts | 195° |
| 2026-05-07 03:22 | 50.93028 | 9.15420 | 40054 ft | 475 kts | 195° |
| 2026-05-07 03:22 | 50.89868 | 9.14116 | 40264 ft | 474 kts | 195° |
| 2026-05-07 03:22 | 50.86673 | 9.12800 | 40470 ft | 474 kts | 195° |
| 2026-05-07 03:22 | 50.83481 | 9.11486 | 40657 ft | 474 kts | 195° |
| 2026-05-07 03:23 | 50.80285 | 9.10173 | 40821 ft | 474 kts | 195° |
| 2026-05-07 03:23 | 50.73885 | 9.07548 | 40885 ft | 475 kts | 195° |
| 2026-05-07 03:24 | 50.67490 | 9.04934 | 40886 ft | 474 kts | 195° |
| 2026-05-07 03:24 | 50.61094 | 9.02327 | 40888 ft | 475 kts | 195° |
| 2026-05-07 03:25 | 50.54695 | 8.99725 | 40884 ft | 475 kts | 195° |
| 2026-05-07 03:25 | 50.48300 | 8.97132 | 40887 ft | 475 kts | 195° |
| 2026-05-07 03:26 | 50.41906 | 8.94547 | 40893 ft | 474 kts | 195° |
| 2026-05-07 03:26 | 50.35506 | 8.91967 | 40895 ft | 474 kts | 195° |
| 2026-05-07 03:27 | 50.29144 | 8.89409 | 40898 ft | 474 kts | 195° |
| 2026-05-07 03:27 | 50.22751 | 8.86846 | 40907 ft | 474 kts | 195° |
| 2026-05-07 03:28 | 50.16346 | 8.84284 | 40917 ft | 474 kts | 195° |
| 2026-05-07 03:28 | 50.09941 | 8.81731 | 40926 ft | 474 kts | 195° |
| 2026-05-07 03:29 | 50.03520 | 8.79617 | 40931 ft | 475 kts | 190° |
| 2026-05-07 03:29 | 49.96964 | 8.78164 | 40930 ft | 475 kts | 188° |
| 2026-05-07 03:30 | 49.90386 | 8.76822 | 40909 ft | 475 kts | 188° |
| 2026-05-07 03:30 | 49.83838 | 8.75491 | 40911 ft | 476 kts | 188° |
| 2026-05-07 03:31 | 49.77272 | 8.74144 | 40911 ft | 476 kts | 189° |
| 2026-05-07 03:31 | 49.70714 | 8.72795 | 40924 ft | 476 kts | 189° |
| 2026-05-07 03:32 | 49.64090 | 8.71448 | 40918 ft | 483 kts | 188° |
| 2026-05-07 03:32 | 49.57414 | 8.70101 | 40927 ft | 489 kts | 188° |
| 2026-05-07 03:33 | 49.50644 | 8.68741 | 40937 ft | 490 kts | 188° |
| 2026-05-07 03:33 | 49.43873 | 8.67381 | 40937 ft | 490 kts | 188° |
| 2026-05-07 03:34 | 49.37143 | 8.66018 | 40931 ft | 490 kts | 189° |
| 2026-05-07 03:34 | 49.30375 | 8.64651 | 40933 ft | 490 kts | 189° |
| 2026-05-07 03:35 | 49.23610 | 8.63289 | 40925 ft | 490 kts | 189° |
| 2026-05-07 03:35 | 49.16893 | 8.61941 | 40921 ft | 489 kts | 189° |
| 2026-05-07 03:36 | 49.10139 | 8.60589 | 40923 ft | 489 kts | 189° |
| 2026-05-07 03:36 | 49.03379 | 8.59239 | 40926 ft | 489 kts | 189° |
| 2026-05-07 03:37 | 48.96637 | 8.57837 | 40923 ft | 489 kts | 191° |
| 2026-05-07 03:37 | 48.89984 | 8.55706 | 40925 ft | 488 kts | 194° |
| 2026-05-07 03:38 | 48.83403 | 8.53378 | 40933 ft | 488 kts | 194° |
| 2026-05-07 03:38 | 48.76763 | 8.51140 | 40941 ft | 488 kts | 193° |
| 2026-05-07 03:39 | 48.70117 | 8.48988 | 40946 ft | 488 kts | 193° |
| 2026-05-07 03:39 | 48.63458 | 8.46860 | 40945 ft | 488 kts | 193° |
| 2026-05-07 03:40 | 48.56795 | 8.44734 | 40935 ft | 488 kts | 193° |
| 2026-05-07 03:40 | 48.50191 | 8.42630 | 40951 ft | 488 kts | 193° |
| 2026-05-07 03:41 | 48.43542 | 8.40515 | 40939 ft | 488 kts | 193° |
| 2026-05-07 03:41 | 48.36886 | 8.38404 | 40943 ft | 488 kts | 193° |
| 2026-05-07 03:42 | 48.30236 | 8.36300 | 40953 ft | 488 kts | 193° |
| 2026-05-07 03:42 | 48.23567 | 8.34196 | 40959 ft | 488 kts | 193° |
| 2026-05-07 03:43 | 48.17086 | 8.31498 | 40961 ft | 486 kts | 204° |
| 2026-05-07 03:43 | 48.11177 | 8.26620 | 40960 ft | 485 kts | 212° |
| 2026-05-07 03:44 | 48.05489 | 8.21149 | 40966 ft | 485 kts | 214° |
| 2026-05-07 03:44 | 47.99829 | 8.15617 | 40975 ft | 485 kts | 213° |
| 2026-05-07 03:45 | 47.94199 | 8.10174 | 40976 ft | 485 kts | 213° |
| 2026-05-07 03:45 | 47.88520 | 8.04734 | 40976 ft | 485 kts | 213° |
| 2026-05-07 03:46 | 47.82835 | 7.99313 | 40983 ft | 485 kts | 213° |
| 2026-05-07 03:46 | 47.77148 | 7.93904 | 40993 ft | 485 kts | 213° |
| 2026-05-07 03:47 | 47.71454 | 7.88500 | 40989 ft | 485 kts | 213° |
| 2026-05-07 03:47 | 47.65756 | 7.83107 | 40991 ft | 485 kts | 213° |
| 2026-05-07 03:48 | 47.60105 | 7.77770 | 40994 ft | 485 kts | 213° |
| 2026-05-07 03:48 | 47.54413 | 7.72410 | 40993 ft | 485 kts | 213° |
| 2026-05-07 03:49 | 47.48719 | 7.67062 | 40993 ft | 485 kts | 213° |
| 2026-05-07 03:49 | 47.43028 | 7.61731 | 40995 ft | 484 kts | 213° |
| 2026-05-07 03:50 | 47.37327 | 7.56404 | 40995 ft | 485 kts | 213° |
| 2026-05-07 03:50 | 47.31618 | 7.51083 | 40995 ft | 485 kts | 213° |
| 2026-05-07 03:51 | 47.25912 | 7.45780 | 41000 ft | 485 kts | 213° |
| 2026-05-07 03:51 | 47.20229 | 7.40506 | 40993 ft | 485 kts | 213° |
| 2026-05-07 03:52 | 47.15064 | 7.34184 | 40991 ft | 484 kts | 229° |
| 2026-05-07 03:52 | 47.10740 | 7.26612 | 40995 ft | 484 kts | 231° |
| 2026-05-07 03:53 | 47.06565 | 7.18864 | 40993 ft | 484 kts | 232° |
| 2026-05-07 03:53 | 47.02395 | 7.11111 | 40980 ft | 484 kts | 232° |
| 2026-05-07 03:54 | 46.98181 | 7.03377 | 40993 ft | 484 kts | 231° |
| 2026-05-07 03:54 | 46.93989 | 6.95738 | 40999 ft | 484 kts | 231° |
| 2026-05-07 03:55 | 46.89367 | 6.88574 | 40997 ft | 485 kts | 221° |
| 2026-05-07 03:55 | 46.84197 | 6.82212 | 40993 ft | 485 kts | 220° |
| 2026-05-07 03:56 | 46.78942 | 6.75994 | 40993 ft | 486 kts | 220° |
| 2026-05-07 03:56 | 46.73683 | 6.69797 | 40990 ft | 485 kts | 220° |
| 2026-05-07 03:57 | 46.68441 | 6.63606 | 40990 ft | 485 kts | 220° |
| 2026-05-07 03:57 | 46.63203 | 6.57421 | 40988 ft | 485 kts | 220° |
| 2026-05-07 03:58 | 46.57989 | 6.51277 | 40988 ft | 485 kts | 220° |
| 2026-05-07 03:58 | 46.52740 | 6.45109 | 40995 ft | 485 kts | 220° |
| 2026-05-07 03:59 | 46.47482 | 6.38946 | 40987 ft | 486 kts | 220° |
| 2026-05-07 03:59 | 46.42215 | 6.32789 | 40988 ft | 487 kts | 220° |
| 2026-05-07 04:00 | 46.36930 | 6.26627 | 40989 ft | 486 kts | 220° |
| 2026-05-07 04:00 | 46.31652 | 6.20489 | 40993 ft | 486 kts | 220° |
| 2026-05-07 04:01 | 46.26116 | 6.14988 | 40995 ft | 488 kts | 208° |
| 2026-05-07 04:01 | 46.19677 | 6.11918 | 40990 ft | 491 kts | 193° |
| 2026-05-07 04:02 | 46.12914 | 6.10284 | 40992 ft | 493 kts | 190° |
| 2026-05-07 04:02 | 46.06097 | 6.08862 | 41018 ft | 493 kts | 190° |
| 2026-05-07 04:03 | 45.99362 | 6.07433 | 41014 ft | 493 kts | 191° |
| 2026-05-07 04:03 | 45.92580 | 6.05952 | 41020 ft | 492 kts | 191° |
| 2026-05-07 04:04 | 45.85814 | 6.04459 | 41020 ft | 492 kts | 191° |
| 2026-05-07 04:04 | 45.79038 | 6.02956 | 41014 ft | 491 kts | 191° |
| 2026-05-07 04:05 | 45.72288 | 6.01466 | 41011 ft | 491 kts | 191° |
| 2026-05-07 04:05 | 45.65567 | 5.99988 | 40994 ft | 491 kts | 191° |
| 2026-05-07 04:06 | 45.59909 | 5.98745 | 40989 ft | 491 kts | 191° |
| 2026-05-07 04:06 | 45.53220 | 5.97279 | 40993 ft | 490 kts | 191° |
| 2026-05-07 04:07 | 45.46469 | 5.95798 | 40996 ft | 490 kts | 191° |
| 2026-05-07 04:07 | 45.39795 | 5.93847 | 40994 ft | 488 kts | 195° |
| 2026-05-07 04:08 | 45.33182 | 5.91634 | 41000 ft | 487 kts | 195° |
| 2026-05-07 04:08 | 45.26617 | 5.89498 | 40999 ft | 487 kts | 195° |
| 2026-05-07 04:09 | 45.19995 | 5.87419 | 40996 ft | 487 kts | 195° |
| 2026-05-07 04:09 | 45.13376 | 5.85371 | 40999 ft | 486 kts | 195° |
| 2026-05-07 04:10 | 45.06766 | 5.83332 | 40998 ft | 486 kts | 195° |
| 2026-05-07 04:10 | 45.00160 | 5.81301 | 41003 ft | 486 kts | 195° |
| 2026-05-07 04:11 | 44.93556 | 5.79271 | 41001 ft | 484 kts | 195° |
| 2026-05-07 04:11 | 44.86976 | 5.77246 | 41001 ft | 484 kts | 195° |
| 2026-05-07 04:12 | 44.80417 | 5.75235 | 41003 ft | 484 kts | 195° |
| 2026-05-07 04:12 | 44.73828 | 5.73223 | 41006 ft | 484 kts | 195° |
| 2026-05-07 04:13 | 44.67235 | 5.71214 | 41007 ft | 484 kts | 195° |
| 2026-05-07 04:13 | 44.60649 | 5.69208 | 41003 ft | 484 kts | 195° |
| 2026-05-07 04:14 | 44.54071 | 5.67210 | 41011 ft | 484 kts | 195° |
| 2026-05-07 04:14 | 44.47524 | 5.65228 | 41000 ft | 484 kts | 195° |
| 2026-05-07 04:15 | 44.40933 | 5.63238 | 41002 ft | 484 kts | 195° |
| 2026-05-07 04:15 | 44.34546 | 5.60455 | 41003 ft | 480 kts | 203° |
| 2026-05-07 04:16 | 44.28316 | 5.57107 | 40989 ft | 479 kts | 204° |
| 2026-05-07 04:16 | 44.22105 | 5.53677 | 41004 ft | 480 kts | 205° |
| 2026-05-07 04:17 | 44.15916 | 5.50274 | 41003 ft | 480 kts | 205° |
| 2026-05-07 04:17 | 44.09687 | 5.46875 | 40993 ft | 480 kts | 204° |
| 2026-05-07 04:18 | 44.03464 | 5.43496 | 40981 ft | 480 kts | 204° |
| 2026-05-07 04:18 | 43.97288 | 5.40150 | 40997 ft | 480 kts | 204° |
| 2026-05-07 04:19 | 43.91108 | 5.36806 | 40975 ft | 480 kts | 204° |
| 2026-05-07 04:19 | 43.84893 | 5.33448 | 40977 ft | 478 kts | 204° |
| 2026-05-07 04:20 | 43.78690 | 5.30103 | 40975 ft | 479 kts | 204° |
| 2026-05-07 04:20 | 43.72511 | 5.26779 | 40967 ft | 479 kts | 204° |
| 2026-05-07 04:21 | 43.63582 | 5.21992 | 40968 ft | 477 kts | 204° |
| 2026-05-07 04:21 | 43.57439 | 5.18706 | 40964 ft | 476 kts | 204° |
| 2026-05-07 04:22 | 43.51273 | 5.15414 | 40955 ft | 476 kts | 204° |
| 2026-05-07 04:22 | 43.45087 | 5.12119 | 40966 ft | 476 kts | 204° |
| 2026-05-07 04:23 | 43.38990 | 5.08623 | 40966 ft | 473 kts | 211° |
| 2026-05-07 04:23 | 43.33438 | 5.03859 | 40963 ft | 470 kts | 216° |
| 2026-05-07 04:24 | 43.28043 | 4.98788 | 40962 ft | 469 kts | 217° |
| 2026-05-07 04:24 | 43.22715 | 4.93725 | 40966 ft | 469 kts | 217° |
| 2026-05-07 04:25 | 43.17332 | 4.88649 | 40963 ft | 469 kts | 217° |
| 2026-05-07 04:25 | 43.11941 | 4.83599 | 40948 ft | 469 kts | 217° |
| 2026-05-07 04:26 | 43.06532 | 4.78575 | 40964 ft | 469 kts | 216° |
| 2026-05-07 04:26 | 43.00912 | 4.74103 | 40965 ft | 471 kts | 212° |
| 2026-05-07 04:27 | 42.95189 | 4.69751 | 40975 ft | 471 kts | 212° |
| 2026-05-07 04:27 | 42.89416 | 4.65402 | 40983 ft | 471 kts | 212° |
| 2026-05-07 04:28 | 42.83715 | 4.61108 | 40985 ft | 470 kts | 212° |
| 2026-05-07 04:28 | 42.77986 | 4.56794 | 40980 ft | 470 kts | 212° |
| 2026-05-07 04:29 | 42.72250 | 4.52480 | 40974 ft | 470 kts | 212° |
| 2026-05-07 04:29 | 42.66513 | 4.48174 | 40978 ft | 470 kts | 212° |
| 2026-05-07 04:30 | 42.60783 | 4.43884 | 40983 ft | 470 kts | 212° |
| 2026-05-07 04:30 | 42.55078 | 4.39621 | 40984 ft | 470 kts | 212° |
| 2026-05-07 04:31 | 42.49348 | 4.35349 | 40980 ft | 470 kts | 212° |
| 2026-05-07 04:31 | 42.43617 | 4.31086 | 40983 ft | 469 kts | 212° |
| 2026-05-07 04:32 | 42.37904 | 4.26844 | 40983 ft | 469 kts | 212° |
| 2026-05-07 04:32 | 42.32177 | 4.22601 | 40970 ft | 469 kts | 212° |
| 2026-05-07 04:33 | 42.26459 | 4.18374 | 40981 ft | 468 kts | 212° |
| 2026-05-07 04:33 | 42.20746 | 4.14158 | 40982 ft | 467 kts | 212° |
| 2026-05-07 04:34 | 42.15076 | 4.09979 | 40986 ft | 467 kts | 212° |
| 2026-05-07 04:34 | 42.09365 | 4.05782 | 40983 ft | 467 kts | 212° |
| 2026-05-07 04:35 | 42.03662 | 4.01605 | 40984 ft | 467 kts | 212° |
| 2026-05-07 04:35 | 41.97954 | 3.97431 | 40984 ft | 467 kts | 212° |
| 2026-05-07 04:36 | 41.92062 | 3.93720 | 40987 ft | 472 kts | 202° |
| 2026-05-07 04:36 | 41.85618 | 3.91710 | 40990 ft | 476 kts | 195° |
| 2026-05-07 04:37 | 41.79076 | 3.90198 | 40990 ft | 477 kts | 194° |
| 2026-05-07 04:37 | 41.72565 | 3.88759 | 40990 ft | 477 kts | 194° |
| 2026-05-07 04:38 | 41.66032 | 3.87289 | 40989 ft | 473 kts | 194° |
| 2026-05-07 04:38 | 41.59615 | 3.85828 | 40994 ft | 463 kts | 195° |
| 2026-05-07 04:39 | 41.53277 | 3.84369 | 40991 ft | 462 kts | 195° |
| 2026-05-07 04:39 | 41.46938 | 3.82909 | 40985 ft | 462 kts | 195° |
| 2026-05-07 04:40 | 41.40599 | 3.81457 | 40987 ft | 461 kts | 195° |
| 2026-05-07 04:40 | 41.34271 | 3.80011 | 40991 ft | 461 kts | 195° |
| 2026-05-07 04:41 | 41.27957 | 3.78575 | 40351 ft | 458 kts | 195° |
| 2026-05-07 04:41 | 41.24853 | 3.77870 | 39678 ft | 459 kts | 195° |
| 2026-05-07 04:41 | 41.21707 | 3.77156 | 38978 ft | 456 kts | 195° |
| 2026-05-07 04:42 | 41.18594 | 3.76452 | 37961 ft | 454 kts | 196° |
| 2026-05-07 04:42 | 41.15521 | 3.75587 | 37232 ft | 447 kts | 202° |
| 2026-05-07 04:42 | 41.12597 | 3.74235 | 36603 ft | 443 kts | 206° |
| 2026-05-07 04:42 | 41.09719 | 3.72787 | 35954 ft | 441 kts | 206° |
| 2026-05-07 04:43 | 41.06852 | 3.71324 | 35282 ft | 441 kts | 206° |
| 2026-05-07 04:43 | 41.03989 | 3.69856 | 34647 ft | 441 kts | 206° |
| 2026-05-07 04:43 | 41.01161 | 3.68404 | 33920 ft | 442 kts | 206° |
| 2026-05-07 04:43 | 40.98286 | 3.66927 | 33085 ft | 444 kts | 206° |
| 2026-05-07 04:44 | 40.95400 | 3.65445 | 32322 ft | 445 kts | 206° |
| 2026-05-07 04:44 | 40.92514 | 3.63964 | 31530 ft | 445 kts | 206° |
| 2026-05-07 04:44 | 40.89617 | 3.62480 | 30720 ft | 446 kts | 206° |
| 2026-05-07 04:44 | 40.86722 | 3.60996 | 29865 ft | 447 kts | 205° |
| 2026-05-07 04:45 | 40.83818 | 3.59510 | 29056 ft | 444 kts | 205° |
| 2026-05-07 04:45 | 40.80947 | 3.58044 | 28448 ft | 439 kts | 205° |
| 2026-05-07 04:45 | 40.78117 | 3.56600 | 27847 ft | 433 kts | 205° |
| 2026-05-07 04:45 | 40.75319 | 3.55173 | 27254 ft | 429 kts | 205° |
| 2026-05-07 04:46 | 40.72552 | 3.53762 | 26679 ft | 424 kts | 205° |
| 2026-05-07 04:46 | 40.69847 | 3.52383 | 26105 ft | 420 kts | 205° |
| 2026-05-07 04:46 | 40.67134 | 3.51002 | 25515 ft | 416 kts | 205° |
| 2026-05-07 04:46 | 40.64441 | 3.49632 | 24970 ft | 413 kts | 205° |
| 2026-05-07 04:47 | 40.61737 | 3.48256 | 24387 ft | 411 kts | 205° |
| 2026-05-07 04:47 | 40.59106 | 3.46920 | 23845 ft | 410 kts | 205° |
| 2026-05-07 04:47 | 40.56406 | 3.45546 | 23615 ft | 423 kts | 205° |
| 2026-05-07 04:47 | 40.53611 | 3.44124 | 23482 ft | 432 kts | 204° |
| 2026-05-07 04:48 | 40.50812 | 3.42708 | 23210 ft | 431 kts | 204° |
| 2026-05-07 04:48 | 40.48009 | 3.41292 | 22936 ft | 430 kts | 204° |
| 2026-05-07 04:48 | 40.45191 | 3.39972 | 22654 ft | 431 kts | 199° |
| 2026-05-07 04:48 | 40.42248 | 3.39377 | 22370 ft | 436 kts | 186° |
| 2026-05-07 04:49 | 40.39172 | 3.39452 | 22126 ft | 436 kts | 182° |
| 2026-05-07 04:49 | 40.36146 | 3.39643 | 21853 ft | 435 kts | 181° |
| 2026-05-07 04:49 | 40.33164 | 3.39833 | 21588 ft | 433 kts | 181° |
| 2026-05-07 04:49 | 40.30147 | 3.40017 | 21332 ft | 431 kts | 181° |
| 2026-05-07 04:50 | 40.27153 | 3.40194 | 21071 ft | 430 kts | 181° |
| 2026-05-07 04:50 | 40.24168 | 3.40368 | 20819 ft | 428 kts | 181° |
| 2026-05-07 04:50 | 40.21194 | 3.40538 | 20568 ft | 427 kts | 181° |
| 2026-05-07 04:50 | 40.18230 | 3.40707 | 20306 ft | 425 kts | 181° |
| 2026-05-07 04:51 | 40.15277 | 3.40875 | 20057 ft | 424 kts | 181° |
| 2026-05-07 04:51 | 40.12368 | 3.41040 | 19808 ft | 422 kts | 181° |
| 2026-05-07 04:51 | 40.09428 | 3.41207 | 19571 ft | 421 kts | 180° |
| 2026-05-07 04:51 | 40.06511 | 3.41372 | 19326 ft | 420 kts | 180° |
| 2026-05-07 04:52 | 40.03598 | 3.41536 | 19094 ft | 418 kts | 180° |
| 2026-05-07 04:52 | 40.00696 | 3.41700 | 18854 ft | 417 kts | 180° |
| 2026-05-07 04:52 | 39.97796 | 3.41863 | 18616 ft | 415 kts | 180° |
| 2026-05-07 04:52 | 39.94900 | 3.42025 | 18356 ft | 413 kts | 180° |
| 2026-05-07 04:53 | 39.92090 | 3.42184 | 17822 ft | 406 kts | 179° |
| 2026-05-07 04:53 | 39.89255 | 3.42345 | 17218 ft | 399 kts | 179° |
| 2026-05-07 04:53 | 39.86524 | 3.42500 | 16628 ft | 394 kts | 179° |
| 2026-05-07 04:53 | 39.83794 | 3.42653 | 16040 ft | 389 kts | 179° |
| 2026-05-07 04:54 | 39.81112 | 3.42804 | 15442 ft | 384 kts | 179° |
| 2026-05-07 04:54 | 39.78451 | 3.42953 | 14862 ft | 380 kts | 179° |
| 2026-05-07 04:54 | 39.76706 | 3.43050 | 14469 ft | 377 kts | 179° |
| 2026-05-07 04:54 | 39.74097 | 3.43058 | 13873 ft | 372 kts | 187° |
| 2026-05-07 04:55 | 39.71611 | 3.42301 | 13249 ft | 364 kts | 203° |
| 2026-05-07 04:55 | 39.69498 | 3.40634 | 13028 ft | 348 kts | 220° |
| 2026-05-07 04:55 | 39.67910 | 3.38372 | 12900 ft | 329 kts | 236° |
| 2026-05-07 04:55 | 39.66842 | 3.35918 | 12786 ft | 299 kts | 242° |
| 2026-05-07 04:56 | 39.65940 | 3.33557 | 12692 ft | 285 kts | 243° |
| 2026-05-07 04:56 | 39.65085 | 3.31310 | 12587 ft | 272 kts | 243° |
| 2026-05-07 04:56 | 39.64284 | 3.29216 | 12465 ft | 267 kts | 242° |
| 2026-05-07 04:56 | 39.63453 | 3.27053 | 12335 ft | 267 kts | 242° |
| 2026-05-07 04:57 | 39.62634 | 3.24927 | 12228 ft | 267 kts | 242° |
| 2026-05-07 04:57 | 39.61802 | 3.22762 | 11934 ft | 266 kts | 242° |
| 2026-05-07 04:57 | 39.60977 | 3.20620 | 11606 ft | 266 kts | 242° |
| 2026-05-07 04:57 | 39.60142 | 3.18467 | 11283 ft | 266 kts | 242° |
| 2026-05-07 04:58 | 39.59311 | 3.16326 | 10958 ft | 266 kts | 242° |
| 2026-05-07 04:58 | 39.58479 | 3.14182 | 10651 ft | 265 kts | 242° |
| 2026-05-07 04:58 | 39.57651 | 3.12048 | 10333 ft | 265 kts | 242° |
| 2026-05-07 04:58 | 39.56823 | 3.09916 | 10024 ft | 265 kts | 242° |
| 2026-05-07 04:59 | 39.55999 | 3.07793 | 9728 ft | 275 kts | 242° |
| 2026-05-07 04:59 | 39.55115 | 3.05524 | 9572 ft | 285 kts | 242° |
| 2026-05-07 04:59 | 39.54226 | 3.03242 | 9270 ft | 281 kts | 243° |
| 2026-05-07 04:59 | 39.53344 | 3.00973 | 8730 ft | 280 kts | 242° |
| 2026-05-07 05:00 | 39.52462 | 2.98707 | 8360 ft | 285 kts | 242° |
| 2026-05-07 05:00 | 39.51572 | 2.96422 | 8010 ft | 283 kts | 242° |
| 2026-05-07 05:00 | 39.50681 | 2.94138 | 7665 ft | 283 kts | 243° |
| 2026-05-07 05:00 | 39.49792 | 2.91860 | 7323 ft | 283 kts | 243° |
| 2026-05-07 05:01 | 39.48914 | 2.89614 | 6993 ft | 283 kts | 243° |
| 2026-05-07 05:01 | 39.48027 | 2.87344 | 6653 ft | 282 kts | 243° |
| 2026-05-07 05:01 | 39.47140 | 2.85076 | 6317 ft | 282 kts | 243° |
| 2026-05-07 05:01 | 39.46255 | 2.82817 | 5962 ft | 281 kts | 243° |
| 2026-05-07 05:02 | 39.45373 | 2.80566 | 5648 ft | 280 kts | 243° |
| 2026-05-07 05:02 | 39.44492 | 2.78321 | 5313 ft | 279 kts | 243° |
| 2026-05-07 05:02 | 39.43678 | 2.76050 | 4973 ft | 278 kts | 251° |
| 2026-05-07 05:02 | 39.43267 | 2.73617 | 4650 ft | 276 kts | 263° |
| 2026-05-07 05:03 | 39.43027 | 2.71151 | 4329 ft | 275 kts | 264° |
| 2026-05-07 05:03 | 39.42806 | 2.68734 | 4113 ft | 268 kts | 264° |
| 2026-05-07 05:03 | 39.42587 | 2.66401 | 3984 ft | 255 kts | 264° |
| 2026-05-07 05:03 | 39.42375 | 2.64185 | 3868 ft | 243 kts | 263° |
| 2026-05-07 05:04 | 39.42168 | 2.62024 | 3670 ft | 241 kts | 264° |
| 2026-05-07 05:04 | 39.42188 | 2.59868 | 3418 ft | 239 kts | 284° |
| 2026-05-07 05:04 | 39.42927 | 2.57997 | 3165 ft | 233 kts | 315° |
| 2026-05-07 05:04 | 39.44183 | 2.56709 | 2917 ft | 229 kts | 329° |
| 2026-05-07 05:05 | 39.45573 | 2.55926 | 2833 ft | 209 kts | 357° |
| 2026-05-07 05:05 | 39.46883 | 2.56311 | 2844 ft | 184 kts | 28° |
| 2026-05-07 05:05 | 39.47891 | 2.57227 | 2602 ft | 178 kts | 43° |
| 2026-05-07 05:05 | 39.48737 | 2.58353 | 2334 ft | 174 kts | 56° |
| 2026-05-07 05:06 | 39.49315 | 2.59691 | 2075 ft | 168 kts | 61° |
| 2026-05-07 05:06 | 39.49938 | 2.60939 | 1851 ft | 162 kts | 58° |
| 2026-05-07 05:06 | 39.50519 | 2.62181 | 1627 ft | 160 kts | 60° |
| 2026-05-07 05:06 | 39.51091 | 2.63391 | 1411 ft | 155 kts | 58° |
| 2026-05-07 05:07 | 39.51646 | 2.64561 | 1194 ft | 150 kts | 58° |
| 2026-05-07 05:07 | 39.52176 | 2.65686 | 999 ft | 142 kts | 58° |
| 2026-05-07 05:07 | 39.52674 | 2.66741 | 812 ft | 134 kts | 58° |
| 2026-05-07 05:07 | 39.53152 | 2.67755 | 649 ft | 133 kts | 58° |
| 2026-05-07 05:08 | 39.53637 | 2.68785 | 475 ft | 134 kts | 57° |
| 2026-05-07 05:08 | 39.54123 | 2.69814 | 313 ft | 133 kts | 59° |
| 2026-05-07 05:08 | 39.54606 | 2.70838 | 142 ft | 133 kts | 57° |
| 2026-05-07 05:08 | 39.55089 | 2.71849 | 42 ft | 126 kts | 58° |
| 2026-05-07 05:09 | 39.55445 | 2.72608 | 44 ft | 60 kts | 59° |
| 2026-05-07 05:09 | 39.55539 | 2.72806 | 44 ft | 15 kts | 58° |
| 2026-05-07 05:09 | 39.55612 | 2.72959 | 44 ft | 22 kts | 59° |
| 2026-05-07 05:09 | 39.55700 | 2.73161 | 44 ft | 29 kts | 69° |
| 2026-05-07 05:10 | 39.55719 | 2.73381 | 44 ft | 13 kts | 88° |
| 2026-05-07 05:10 | 39.55710 | 2.73504 | 44 ft | 11 kts | 128° |
| 2026-05-07 05:10 | 39.55644 | 2.73507 | 44 ft | 11 kts | 184° |
| 2026-05-07 05:10 | 39.55560 | 2.73547 | 44 ft | 15 kts | 148° |
| 2026-05-07 05:11 | 39.55462 | 2.73625 | 44 ft | 18 kts | 148° |
| 2026-05-07 05:11 | 39.55343 | 2.73719 | 44 ft | 22 kts | 148° |
| 2026-05-07 05:11 | 39.55242 | 2.73800 | 44 ft | 14 kts | 148° |
| 2026-05-07 05:11 | 39.55184 | 2.73813 | 44 ft | 5 kts | 206° |
| 2026-05-07 05:12 | 39.55141 | 2.73785 | 44 ft | 9 kts | 185° |
| 2026-05-07 05:12 | 39.55079 | 2.73818 | 44 ft | 10 kts | 154° |
| 2026-05-07 05:12 | 39.55041 | 2.73801 | 44 ft | 7 kts | 224° |
| 2026-05-07 05:12 | 39.55014 | 2.73752 | 44 ft | 4 kts | 239° |
| 2026-05-07 05:13 | 39.55010 | 2.73742 | 44 ft | 0 kts | 239° |
| 2026-05-07 05:13 | 39.55009 | 2.73740 | 44 ft | 1 kts | 239° |
| 2026-05-07 05:13 | 39.55005 | 2.73733 | 44 ft | 0 kts | 239° |